EZY32MM EDDK-EGGP
Flight info
| Callsign | EZY32MM |
|---|---|
| Flight time | 1h 5m |
| Altitude | 38000 |
| Route | NVO2R/31R NVO Y868 SOGRI L608 DENUT L610 GILDA M14 STOAT L613 MOGLI UP6 LESTA |
| Aircraft | A320/M-SDE3FGHIRWY/LB1 |
Departure
| Time | 2026-04-26 15:30 |
|---|---|
| Airport | Cologne Bonn Airport (EDDK) |
Arrival
| Time | 2026-04-26 16:35 |
|---|---|
| Airport | Liverpool John Lennon Airport (EGGP) |
| Time | Latitude | Longitude | Altitude | Speed | Heading |
|---|---|---|---|---|---|
| 2026-04-26 15:10 | 50.87933 | 7.12451 | 230 ft | 0 kts | 260° |
| 2026-04-26 15:17 | 50.87935 | 7.12468 | 230 ft | 3 kts | 262° |
| 2026-04-26 15:17 | 50.87937 | 7.12492 | 230 ft | 3 kts | 264° |
| 2026-04-26 15:17 | 50.87937 | 7.12497 | 230 ft | 0 kts | 263° |
| 2026-04-26 15:17 | 50.87937 | 7.12494 | 230 ft | 0 kts | 263° |
| 2026-04-26 15:18 | 50.87937 | 7.12493 | 230 ft | 0 kts | 263° |
| 2026-04-26 15:19 | 50.87940 | 7.12518 | 230 ft | 7 kts | 224° |
| 2026-04-26 15:19 | 50.87978 | 7.12526 | 232 ft | 10 kts | 158° |
| 2026-04-26 15:20 | 50.88001 | 7.12499 | 233 ft | 2 kts | 115° |
| 2026-04-26 15:20 | 50.88010 | 7.12468 | 230 ft | 0 kts | 133° |
| 2026-04-26 15:21 | 50.88003 | 7.12481 | 231 ft | 6 kts | 133° |
| 2026-04-26 15:21 | 50.87940 | 7.12583 | 231 ft | 18 kts | 140° |
| 2026-04-26 15:21 | 50.87832 | 7.12619 | 231 ft | 16 kts | 158° |
| 2026-04-26 15:22 | 50.87752 | 7.12725 | 230 ft | 14 kts | 137° |
| 2026-04-26 15:22 | 50.87676 | 7.12834 | 230 ft | 15 kts | 138° |
| 2026-04-26 15:22 | 50.87600 | 7.12942 | 230 ft | 14 kts | 138° |
| 2026-04-26 15:22 | 50.87531 | 7.13043 | 231 ft | 14 kts | 137° |
| 2026-04-26 15:23 | 50.87467 | 7.13136 | 232 ft | 24 kts | 137° |
| 2026-04-26 15:23 | 50.87288 | 7.13396 | 238 ft | 27 kts | 137° |
| 2026-04-26 15:23 | 50.87195 | 7.13530 | 239 ft | 26 kts | 137° |
| 2026-04-26 15:23 | 50.87059 | 7.13729 | 242 ft | 27 kts | 137° |
| 2026-04-26 15:24 | 50.86921 | 7.13926 | 243 ft | 27 kts | 137° |
| 2026-04-26 15:24 | 50.86780 | 7.14119 | 250 ft | 25 kts | 154° |
| 2026-04-26 15:24 | 50.86661 | 7.14243 | 257 ft | 17 kts | 137° |
| 2026-04-26 15:24 | 50.86574 | 7.14371 | 258 ft | 21 kts | 137° |
| 2026-04-26 15:25 | 50.86444 | 7.14556 | 262 ft | 26 kts | 137° |
| 2026-04-26 15:25 | 50.86311 | 7.14750 | 267 ft | 26 kts | 137° |
| 2026-04-26 15:25 | 50.86179 | 7.14942 | 271 ft | 26 kts | 137° |
| 2026-04-26 15:25 | 50.86055 | 7.15133 | 276 ft | 20 kts | 120° |
| 2026-04-26 15:26 | 50.86073 | 7.15320 | 278 ft | 15 kts | 49° |
| 2026-04-26 15:26 | 50.86155 | 7.15359 | 276 ft | 12 kts | 351° |
| 2026-04-26 15:26 | 50.86258 | 7.15327 | 274 ft | 15 kts | 349° |
| 2026-04-26 15:26 | 50.86359 | 7.15313 | 270 ft | 15 kts | 24° |
| 2026-04-26 15:27 | 50.86387 | 7.15310 | 269 ft | 0 kts | 318° |
| 2026-04-26 15:28 | 50.86390 | 7.15305 | 269 ft | 1 kts | 318° |
| 2026-04-26 15:29 | 50.86411 | 7.15276 | 268 ft | 15 kts | 318° |
| 2026-04-26 15:29 | 50.86736 | 7.14807 | 257 ft | 98 kts | 318° |
| 2026-04-26 15:29 | 50.87835 | 7.13217 | 631 ft | 153 kts | 315° |
| 2026-04-26 15:30 | 50.89705 | 7.10495 | 2074 ft | 170 kts | 319° |
| 2026-04-26 15:30 | 50.90492 | 7.09348 | 2540 ft | 178 kts | 316° |
| 2026-04-26 15:30 | 50.91087 | 7.08023 | 3012 ft | 186 kts | 289° |
| 2026-04-26 15:31 | 50.91052 | 7.05146 | 3639 ft | 211 kts | 259° |
| 2026-04-26 15:31 | 50.90772 | 7.03643 | 4076 ft | 217 kts | 252° |
| 2026-04-26 15:31 | 50.89857 | 6.99306 | 5773 ft | 220 kts | 254° |
| 2026-04-26 15:32 | 50.88945 | 6.94917 | 7344 ft | 227 kts | 255° |
| 2026-04-26 15:32 | 50.88298 | 6.91785 | 8342 ft | 234 kts | 255° |
| 2026-04-26 15:32 | 50.87791 | 6.89296 | 9205 ft | 237 kts | 258° |
| 2026-04-26 15:33 | 50.87499 | 6.86365 | 10052 ft | 245 kts | 269° |
| 2026-04-26 15:33 | 50.87462 | 6.84121 | 10637 ft | 250 kts | 275° |
| 2026-04-26 15:33 | 50.87633 | 6.81188 | 11620 ft | 248 kts | 279° |
| 2026-04-26 15:33 | 50.87633 | 6.78539 | 12346 ft | 258 kts | 266° |
| 2026-04-26 15:34 | 50.87457 | 6.75554 | 12705 ft | 281 kts | 267° |
| 2026-04-26 15:34 | 50.87291 | 6.72350 | 12990 ft | 305 kts | 267° |
| 2026-04-26 15:34 | 50.87114 | 6.68774 | 13360 ft | 325 kts | 267° |
| 2026-04-26 15:34 | 50.86934 | 6.65229 | 14039 ft | 332 kts | 267° |
| 2026-04-26 15:35 | 50.86740 | 6.61527 | 14743 ft | 336 kts | 266° |
| 2026-04-26 15:35 | 50.86595 | 6.58842 | 15256 ft | 338 kts | 266° |
| 2026-04-26 15:35 | 50.86403 | 6.54009 | 16163 ft | 342 kts | 270° |
| 2026-04-26 15:35 | 50.86254 | 6.49882 | 16920 ft | 346 kts | 266° |
| 2026-04-26 15:36 | 50.86103 | 6.47548 | 17360 ft | 348 kts | 265° |
| 2026-04-26 15:36 | 50.85991 | 6.42457 | 18247 ft | 351 kts | 279° |
| 2026-04-26 15:36 | 50.86323 | 6.39901 | 18718 ft | 353 kts | 283° |
| 2026-04-26 15:36 | 50.87077 | 6.34743 | 19524 ft | 357 kts | 284° |
| 2026-04-26 15:37 | 50.87666 | 6.30796 | 20164 ft | 359 kts | 284° |
| 2026-04-26 15:37 | 50.88242 | 6.26942 | 20775 ft | 362 kts | 284° |
| 2026-04-26 15:37 | 50.88625 | 6.24377 | 21174 ft | 364 kts | 284° |
| 2026-04-26 15:37 | 50.89392 | 6.19213 | 21952 ft | 367 kts | 284° |
| 2026-04-26 15:38 | 50.90001 | 6.15091 | 22551 ft | 370 kts | 284° |
| 2026-04-26 15:38 | 50.90708 | 6.10291 | 23241 ft | 373 kts | 284° |
| 2026-04-26 15:38 | 50.91101 | 6.07597 | 23635 ft | 374 kts | 284° |
| 2026-04-26 15:38 | 50.91706 | 6.03430 | 24156 ft | 377 kts | 284° |
| 2026-04-26 15:39 | 50.92280 | 5.99452 | 24612 ft | 379 kts | 284° |
| 2026-04-26 15:39 | 50.92869 | 5.95368 | 25081 ft | 381 kts | 284° |
| 2026-04-26 15:39 | 50.93459 | 5.91263 | 25537 ft | 383 kts | 284° |
| 2026-04-26 15:39 | 50.93851 | 5.88537 | 25802 ft | 384 kts | 284° |
| 2026-04-26 15:40 | 50.94675 | 5.82805 | 26428 ft | 387 kts | 284° |
| 2026-04-26 15:40 | 50.95079 | 5.80024 | 26731 ft | 388 kts | 285° |
| 2026-04-26 15:40 | 50.95960 | 5.74348 | 27299 ft | 391 kts | 286° |
| 2026-04-26 15:40 | 50.96699 | 5.69790 | 27788 ft | 393 kts | 286° |
| 2026-04-26 15:41 | 50.97389 | 5.65573 | 28196 ft | 395 kts | 286° |
| 2026-04-26 15:41 | 50.98085 | 5.61283 | 28575 ft | 397 kts | 286° |
| 2026-04-26 15:41 | 50.98768 | 5.57031 | 28986 ft | 399 kts | 286° |
| 2026-04-26 15:41 | 50.99447 | 5.52751 | 29398 ft | 401 kts | 286° |
| 2026-04-26 15:42 | 51.00117 | 5.48495 | 29851 ft | 401 kts | 286° |
| 2026-04-26 15:42 | 51.00799 | 5.44153 | 30313 ft | 402 kts | 286° |
| 2026-04-26 15:42 | 51.01476 | 5.39834 | 30671 ft | 403 kts | 286° |
| 2026-04-26 15:42 | 51.02155 | 5.35505 | 31016 ft | 405 kts | 286° |
| 2026-04-26 15:43 | 51.02836 | 5.31141 | 31349 ft | 406 kts | 286° |
| 2026-04-26 15:43 | 51.03517 | 5.26767 | 31656 ft | 408 kts | 286° |
| 2026-04-26 15:43 | 51.04864 | 5.18049 | 32515 ft | 404 kts | 285° |
| 2026-04-26 15:44 | 51.05528 | 5.13715 | 33010 ft | 402 kts | 285° |
| 2026-04-26 15:44 | 51.06841 | 5.05149 | 33963 ft | 398 kts | 285° |
| 2026-04-26 15:44 | 51.07495 | 5.00893 | 34369 ft | 396 kts | 285° |
| 2026-04-26 15:45 | 51.08794 | 4.92389 | 35050 ft | 395 kts | 285° |
| 2026-04-26 15:45 | 51.09439 | 4.88148 | 35362 ft | 395 kts | 285° |
| 2026-04-26 15:46 | 51.10729 | 4.79634 | 35966 ft | 395 kts | 285° |
| 2026-04-26 15:46 | 51.11380 | 4.75322 | 36270 ft | 396 kts | 285° |
| 2026-04-26 15:46 | 51.12020 | 4.71077 | 36557 ft | 396 kts | 285° |
| 2026-04-26 15:46 | 51.12445 | 4.68240 | 36808 ft | 395 kts | 285° |
| 2026-04-26 15:47 | 51.13287 | 4.62590 | 37155 ft | 395 kts | 285° |
| 2026-04-26 15:47 | 51.14568 | 4.53945 | 37693 ft | 396 kts | 285° |
| 2026-04-26 15:47 | 51.15192 | 4.49751 | 37931 ft | 396 kts | 285° |
| 2026-04-26 15:48 | 51.15828 | 4.45476 | 38174 ft | 396 kts | 285° |
| 2026-04-26 15:48 | 51.16461 | 4.41206 | 38288 ft | 397 kts | 284° |
| 2026-04-26 15:48 | 51.17092 | 4.36941 | 38298 ft | 402 kts | 284° |
| 2026-04-26 15:49 | 51.18387 | 4.28129 | 38299 ft | 413 kts | 284° |
| 2026-04-26 15:49 | 51.19700 | 4.19093 | 38293 ft | 423 kts | 284° |
| 2026-04-26 15:50 | 51.21025 | 4.09891 | 38295 ft | 427 kts | 284° |
| 2026-04-26 15:50 | 51.22350 | 4.00655 | 38297 ft | 427 kts | 284° |
| 2026-04-26 15:51 | 51.23670 | 3.91400 | 38287 ft | 427 kts | 284° |
| 2026-04-26 15:51 | 51.24991 | 3.82131 | 38292 ft | 427 kts | 284° |
| 2026-04-26 15:52 | 51.26291 | 3.72933 | 38288 ft | 427 kts | 284° |
| 2026-04-26 15:52 | 51.27598 | 3.63664 | 38292 ft | 427 kts | 284° |
| 2026-04-26 15:53 | 51.28890 | 3.54403 | 38320 ft | 427 kts | 283° |
| 2026-04-26 15:53 | 51.30173 | 3.45119 | 38323 ft | 428 kts | 283° |
| 2026-04-26 15:54 | 51.31457 | 3.35812 | 38322 ft | 428 kts | 283° |
| 2026-04-26 15:54 | 51.32734 | 3.26514 | 38320 ft | 428 kts | 283° |
| 2026-04-26 15:55 | 51.33997 | 3.17209 | 38335 ft | 428 kts | 283° |
| 2026-04-26 15:55 | 51.35253 | 3.07882 | 38334 ft | 428 kts | 283° |
| 2026-04-26 15:56 | 51.36510 | 2.98554 | 38337 ft | 428 kts | 283° |
| 2026-04-26 15:56 | 51.37758 | 2.89217 | 38336 ft | 428 kts | 283° |
| 2026-04-26 15:57 | 51.38993 | 2.79877 | 38333 ft | 428 kts | 282° |
| 2026-04-26 15:57 | 51.40224 | 2.70533 | 38334 ft | 429 kts | 282° |
| 2026-04-26 15:58 | 51.41445 | 2.61199 | 38338 ft | 429 kts | 282° |
| 2026-04-26 15:58 | 51.42650 | 2.51890 | 38341 ft | 429 kts | 282° |
| 2026-04-26 15:59 | 51.43863 | 2.42531 | 38338 ft | 429 kts | 282° |
| 2026-04-26 15:59 | 51.45067 | 2.33156 | 38335 ft | 429 kts | 282° |
| 2026-04-26 16:00 | 51.46259 | 2.23760 | 38335 ft | 430 kts | 282° |
| 2026-04-26 16:00 | 51.47258 | 2.15886 | 38336 ft | 430 kts | 282° |
| 2026-04-26 16:01 | 51.48449 | 2.06478 | 38336 ft | 430 kts | 282° |
| 2026-04-26 16:01 | 51.49623 | 1.97128 | 38332 ft | 430 kts | 282° |
| 2026-04-26 16:02 | 51.50783 | 1.87705 | 38323 ft | 430 kts | 281° |
| 2026-04-26 16:02 | 51.51932 | 1.78285 | 38327 ft | 430 kts | 281° |
| 2026-04-26 16:03 | 51.53089 | 1.68867 | 38326 ft | 430 kts | 281° |
| 2026-04-26 16:03 | 51.54240 | 1.59438 | 38325 ft | 430 kts | 281° |
| 2026-04-26 16:04 | 51.55379 | 1.50003 | 38322 ft | 430 kts | 281° |
| 2026-04-26 16:04 | 51.56511 | 1.40557 | 38324 ft | 429 kts | 281° |
| 2026-04-26 16:05 | 51.57635 | 1.31101 | 38338 ft | 429 kts | 281° |
| 2026-04-26 16:05 | 51.58745 | 1.21676 | 38336 ft | 429 kts | 281° |
| 2026-04-26 16:06 | 51.59846 | 1.12224 | 38336 ft | 429 kts | 281° |
| 2026-04-26 16:06 | 51.60945 | 1.02733 | 38338 ft | 429 kts | 281° |
| 2026-04-26 16:07 | 51.62139 | 0.93439 | 38318 ft | 429 kts | 289° |
| 2026-04-26 16:07 | 51.63493 | 0.89091 | 38318 ft | 431 kts | 304° |
| 2026-04-26 16:07 | 51.65451 | 0.85426 | 38329 ft | 433 kts | 311° |
| 2026-04-26 16:08 | 51.69588 | 0.78323 | 38320 ft | 434 kts | 311° |
| 2026-04-26 16:08 | 51.73708 | 0.71276 | 38316 ft | 434 kts | 311° |
| 2026-04-26 16:09 | 51.77871 | 0.64089 | 38330 ft | 435 kts | 311° |
| 2026-04-26 16:09 | 51.82020 | 0.56891 | 38345 ft | 435 kts | 310° |
| 2026-04-26 16:10 | 51.86122 | 0.49754 | 38336 ft | 435 kts | 310° |
| 2026-04-26 16:10 | 51.90244 | 0.42587 | 38330 ft | 435 kts | 310° |
| 2026-04-26 16:11 | 51.94368 | 0.35386 | 38332 ft | 435 kts | 310° |
| 2026-04-26 16:11 | 51.98479 | 0.28173 | 38339 ft | 435 kts | 310° |
| 2026-04-26 16:12 | 52.02600 | 0.20935 | 38333 ft | 435 kts | 310° |
| 2026-04-26 16:12 | 52.08731 | 0.10119 | 38323 ft | 435 kts | 310° |
| 2026-04-26 16:13 | 52.12831 | 0.02847 | 38319 ft | 435 kts | 310° |
| 2026-04-26 16:13 | 52.14878 | -0.00793 | 38174 ft | 437 kts | 310° |
| 2026-04-26 16:13 | 52.16925 | -0.04430 | 37520 ft | 436 kts | 310° |
| 2026-04-26 16:14 | 52.18964 | -0.08058 | 37189 ft | 436 kts | 310° |
| 2026-04-26 16:14 | 52.21027 | -0.11737 | 36923 ft | 438 kts | 310° |
| 2026-04-26 16:14 | 52.25151 | -0.19104 | 36402 ft | 440 kts | 309° |
| 2026-04-26 16:15 | 52.27217 | -0.22797 | 36148 ft | 441 kts | 309° |
| 2026-04-26 16:15 | 52.29287 | -0.26503 | 35906 ft | 441 kts | 310° |
| 2026-04-26 16:15 | 52.31358 | -0.30213 | 35649 ft | 442 kts | 309° |
| 2026-04-26 16:16 | 52.35503 | -0.37681 | 35158 ft | 444 kts | 309° |
| 2026-04-26 16:16 | 52.37575 | -0.41423 | 34904 ft | 444 kts | 309° |
| 2026-04-26 16:16 | 52.39655 | -0.45182 | 34656 ft | 445 kts | 309° |
| 2026-04-26 16:16 | 52.41731 | -0.48932 | 34425 ft | 446 kts | 309° |
| 2026-04-26 16:17 | 52.43818 | -0.52713 | 34165 ft | 447 kts | 309° |
| 2026-04-26 16:17 | 52.45900 | -0.56497 | 33888 ft | 448 kts | 309° |
| 2026-04-26 16:17 | 52.47987 | -0.60297 | 33611 ft | 448 kts | 309° |
| 2026-04-26 16:17 | 52.50081 | -0.64109 | 33339 ft | 449 kts | 309° |
| 2026-04-26 16:18 | 52.52181 | -0.67934 | 33072 ft | 450 kts | 309° |
| 2026-04-26 16:18 | 52.56356 | -0.75561 | 32552 ft | 451 kts | 309° |
| 2026-04-26 16:19 | 52.60557 | -0.83259 | 31924 ft | 453 kts | 309° |
| 2026-04-26 16:19 | 52.62660 | -0.87112 | 31366 ft | 454 kts | 309° |
| 2026-04-26 16:19 | 52.66169 | -0.93565 | 30504 ft | 456 kts | 309° |
| 2026-04-26 16:20 | 52.68996 | -0.98792 | 30223 ft | 458 kts | 309° |
| 2026-04-26 16:20 | 52.73246 | -1.06679 | 29959 ft | 457 kts | 308° |
| 2026-04-26 16:20 | 52.75051 | -1.10966 | 28808 ft | 453 kts | 294° |
| 2026-04-26 16:21 | 52.76346 | -1.15726 | 27505 ft | 456 kts | 291° |
| 2026-04-26 16:21 | 52.77580 | -1.20587 | 26423 ft | 460 kts | 291° |
| 2026-04-26 16:21 | 52.78824 | -1.25545 | 25676 ft | 461 kts | 291° |
| 2026-04-26 16:21 | 52.80044 | -1.30432 | 24955 ft | 458 kts | 291° |
| 2026-04-26 16:22 | 52.81251 | -1.35271 | 24250 ft | 454 kts | 291° |
| 2026-04-26 16:22 | 52.82447 | -1.40107 | 23493 ft | 451 kts | 291° |
| 2026-04-26 16:22 | 52.83232 | -1.43291 | 22967 ft | 448 kts | 290° |
| 2026-04-26 16:22 | 52.84807 | -1.49710 | 21890 ft | 449 kts | 290° |
| 2026-04-26 16:23 | 52.85981 | -1.54498 | 21116 ft | 448 kts | 290° |
| 2026-04-26 16:23 | 52.87150 | -1.59249 | 20368 ft | 445 kts | 290° |
| 2026-04-26 16:23 | 52.87925 | -1.62404 | 19875 ft | 443 kts | 290° |
| 2026-04-26 16:23 | 52.89082 | -1.67125 | 19155 ft | 440 kts | 290° |
| 2026-04-26 16:24 | 52.90242 | -1.71860 | 18419 ft | 437 kts | 291° |
| 2026-04-26 16:24 | 52.91664 | -1.76286 | 17609 ft | 434 kts | 300° |
| 2026-04-26 16:24 | 52.93244 | -1.80519 | 16822 ft | 430 kts | 300° |
| 2026-04-26 16:24 | 52.94814 | -1.84714 | 16046 ft | 425 kts | 300° |
| 2026-04-26 16:25 | 52.96362 | -1.88858 | 15296 ft | 421 kts | 300° |
| 2026-04-26 16:25 | 52.97894 | -1.92967 | 14570 ft | 416 kts | 300° |
| 2026-04-26 16:25 | 52.99403 | -1.97026 | 13833 ft | 411 kts | 300° |
| 2026-04-26 16:25 | 53.00901 | -2.01066 | 13031 ft | 406 kts | 300° |
| 2026-04-26 16:26 | 53.02369 | -2.05028 | 12254 ft | 401 kts | 300° |
| 2026-04-26 16:26 | 53.03869 | -2.09060 | 11470 ft | 396 kts | 300° |
| 2026-04-26 16:26 | 53.05275 | -2.12834 | 10749 ft | 392 kts | 300° |
| 2026-04-26 16:26 | 53.06709 | -2.16675 | 10002 ft | 388 kts | 300° |
| 2026-04-26 16:27 | 53.08123 | -2.20467 | 9268 ft | 382 kts | 300° |
| 2026-04-26 16:27 | 53.09515 | -2.24192 | 8831 ft | 370 kts | 300° |
| 2026-04-26 16:27 | 53.10844 | -2.27748 | 8439 ft | 349 kts | 300° |
| 2026-04-26 16:27 | 53.12077 | -2.31045 | 8012 ft | 324 kts | 300° |
| 2026-04-26 16:28 | 53.13369 | -2.33936 | 7581 ft | 306 kts | 316° |
| 2026-04-26 16:28 | 53.15129 | -2.35814 | 7163 ft | 291 kts | 332° |
| 2026-04-26 16:28 | 53.16924 | -2.37242 | 6746 ft | 280 kts | 333° |
| 2026-04-26 16:28 | 53.18738 | -2.38628 | 6299 ft | 277 kts | 334° |
| 2026-04-26 16:29 | 53.20421 | -2.39920 | 5877 ft | 276 kts | 333° |
| 2026-04-26 16:29 | 53.22181 | -2.41271 | 5582 ft | 268 kts | 333° |
| 2026-04-26 16:29 | 53.23879 | -2.42580 | 5319 ft | 259 kts | 332° |
| 2026-04-26 16:29 | 53.25511 | -2.43819 | 5064 ft | 253 kts | 333° |
| 2026-04-26 16:30 | 53.27034 | -2.44971 | 4816 ft | 246 kts | 333° |
| 2026-04-26 16:30 | 53.28655 | -2.46221 | 4545 ft | 238 kts | 328° |
| 2026-04-26 16:30 | 53.29798 | -2.48027 | 4283 ft | 220 kts | 304° |
| 2026-04-26 16:30 | 53.30655 | -2.50103 | 3936 ft | 216 kts | 301° |
| 2026-04-26 16:31 | 53.31491 | -2.52293 | 3429 ft | 226 kts | 300° |
| 2026-04-26 16:31 | 53.32317 | -2.54468 | 3038 ft | 227 kts | 302° |
| 2026-04-26 16:31 | 53.33222 | -2.56493 | 2993 ft | 207 kts | 306° |
| 2026-04-26 16:31 | 53.34005 | -2.58430 | 2999 ft | 194 kts | 295° |
| 2026-04-26 16:32 | 53.34386 | -2.60531 | 2833 ft | 194 kts | 273° |
| 2026-04-26 16:32 | 53.34364 | -2.62097 | 2627 ft | 197 kts | 265° |
| 2026-04-26 16:32 | 53.34237 | -2.65167 | 2253 ft | 198 kts | 264° |
| 2026-04-26 16:32 | 53.34139 | -2.67472 | 1933 ft | 195 kts | 264° |
| 2026-04-26 16:33 | 53.34042 | -2.69704 | 1684 ft | 188 kts | 264° |
| 2026-04-26 16:33 | 53.33950 | -2.71816 | 1453 ft | 174 kts | 264° |
| 2026-04-26 16:33 | 53.33858 | -2.73785 | 1223 ft | 159 kts | 264° |
| 2026-04-26 16:33 | 53.33774 | -2.75602 | 1020 ft | 149 kts | 263° |
| 2026-04-26 16:34 | 53.33704 | -2.77299 | 827 ft | 144 kts | 264° |
| 2026-04-26 16:34 | 53.33641 | -2.78943 | 646 ft | 142 kts | 263° |
| 2026-04-26 16:34 | 53.33588 | -2.80054 | 532 ft | 143 kts | 263° |
| 2026-04-26 16:34 | 53.33509 | -2.81828 | 321 ft | 141 kts | 264° |
| 2026-04-26 16:35 | 53.33441 | -2.83385 | 114 ft | 138 kts | 263° |
| 2026-04-26 16:35 | 53.33377 | -2.84864 | 75 ft | 55 kts | 266° |
| 2026-04-26 16:35 | 53.33368 | -2.85323 | 86 ft | 27 kts | 289° |
| 2026-04-26 16:35 | 53.33434 | -2.85572 | 81 ft | 17 kts | 293° |
| 2026-04-26 16:36 | 53.33474 | -2.85654 | 85 ft | 5 kts | 351° |
| 2026-04-26 16:36 | 53.33500 | -2.85602 | 87 ft | 8 kts | 81° |
| 2026-04-26 16:36 | 53.33506 | -2.85508 | 85 ft | 9 kts | 88° |
| 2026-04-26 16:36 | 53.33512 | -2.85351 | 87 ft | 16 kts | 85° |
| 2026-04-26 16:37 | 53.33521 | -2.85161 | 88 ft | 14 kts | 86° |
| 2026-04-26 16:37 | 53.33534 | -2.85064 | 88 ft | 6 kts | 40° |
| 2026-04-26 16:37 | 53.33576 | -2.85062 | 85 ft | 10 kts | 356° |
| 2026-04-26 16:37 | 53.33592 | -2.85108 | 87 ft | 7 kts | 272° |
| 2026-04-26 16:38 | 53.33588 | -2.85178 | 85 ft | 2 kts | 265° |
| 2026-04-26 16:38 | 53.33588 | -2.85184 | 85 ft | 0 kts | 265° |